Main page
METAR-TAF:

METAR-TAF

Airports :

Sarajevo International Airport

Sarajevo, Bosnia and Herzegovina

latitude: 43-49N, longitude: 018-20E, elevation: 511 m

Current weather observation

The report was made 35 minutes ago, at 08:30 UTC
Wind 2 kt from variable directions
Temperature 20°C
Humidity 73%
Pressure 1019 hPa
Visibility 10 km or more
no clouds below 1500 m and no cumulonimbus

METAR: LQSA 210830Z VRB02KT CAVOK 20/15 Q1019 NOSIG

Time: 11:05 (09:05 UTC)

Forecast

The report was made 4 hours and 5 minutes ago, at 05:00 UTC
Forecast valid from 21 at 06 UTC to 22 at 06 UTC
Wind 6 kt from the Southeast
Visibility 10 km or more
Scattered clouds at a height of 6000 ft
Probability 30% :
Temporary
from 21 at 13 UTC to 21 at 17 UTC
Few clouds at a height of 3500 ft, Cumulonimbus.
Scattered clouds at a height of 5000 ft
thunderstorm, rain

TAF: LQSA 210500Z 2106/2206 14006KT 9999 SCT060 TX27/2113Z TN13/2204Z PROB30 TEMPO 2113/2117 TSRA FEW035CB SCT050

Weather observations and forecasts of more than 4000 airports (METAR and TAF reports).

The available stations are represented by yellow and red dots on the map.

Hover mouse over dot to see the name of the station.

Then click to see weather observations and forecasts.

To change the map : click on the green buttons with a black cross to zoom in, on the green button with a dash to zoom out, or on the green arrows for adjacent maps.


METAR-TAF: